Data for 08/12/2014

Time Sea-Level Adjusted Pressure Absolute Pressure Temperature Relative Humidity Dew Point   
(mb) (inHg) (mb) (inHg) (C) (F) (%) (C) (F)
00:05 1022 30.18 852 25.16 23.2 73.8 30 4.8 40.7
00:10 1022 30.18 852 25.16 23.3 73.9 30 4.8 40.7
00:15 1022 30.18 852 25.16 23.3 74 30 4.7 40.5
00:20 1022 30.18 852 25.16 23.5 74.3 29 4.6 40.3
00:25 1022 30.18 852 25.16 23.6 74.4 29 4.7 40.4
00:30 1022 30.18 852 25.16 23.6 74.4 29 4.6 40.3
00:35 1022 30.18 852 25.16 23.5 74.3 29 4.7 40.4
00:40 1022 30.18 852 25.16 23.5 74.3 29 4.6 40.3
00:45 1022 30.18 852 25.16 23.4 74.1 29 4.7 40.5
00:50 1023 30.21 852 25.16 23.3 73.9 29 4.4 39.9
00:55 1023 30.21 852 25.16 23.5 74.3 28 4.4 39.9
01:00 1022 30.18 852 25.16 23.6 74.5 29 4.7 40.4
01:05 1022 30.18 852 25.16 23.4 74.1 29 4.5 40.1
01:10 1022 30.18 852 25.16 23.5 74.3 29 4.5 40.1
01:15 1023 30.21 852 25.16 23.3 74 29 4.5 40.1
01:20 1023 30.21 852 25.16 23.3 73.9 29 4.5 40.1
01:25 1023 30.21 852 25.16 23.2 73.7 29 4.4 39.9
01:30 1022 30.18 852 25.16 23.2 73.7 29 4.3 39.8
01:35 1023 30.21 852 25.16 23.2 73.7 29 4.5 40.1
01:40 1023 30.21 852 25.16 22.9 73.3 30 4.5 40.2
01:45 1023 30.21 852 25.16 22.8 73 30 4.3 39.8
01:50 1023 30.21 852 25.16 22.8 73 30 4.4 40
01:55 1023 30.21 852 25.16 22.7 72.9 30 4.6 40.2
02:00 1023 30.21 852 25.16 22.6 72.6 31 4.6 40.3
02:05 1023 30.21 852 25.16 22.5 72.4 31 4.6 40.3
02:10 1023 30.21 852 25.16 22.5 72.4 31 4.6 40.2
02:15 1023 30.21 852 25.16 22.5 72.5 31 4.5 40.2
02:20 1023 30.21 852 25.16 22.5 72.6 31 4.6 40.3
02:25 1023 30.21 852 25.16 22.4 72.4 31 4.6 40.2
02:30 1023 30.21 852 25.16 22.4 72.4 31 4.6 40.3
02:35 1023 30.21 852 25.16 22.4 72.3 31 4.8 40.6
02:40 1023 30.21 852 25.16 22.3 72.1 32 4.8 40.6
02:45 1023 30.21 852 25.16 22 71.7 32 4.9 40.9
02:50 1023 30.21 852 25.16 21.9 71.3 32 4.8 40.7
02:55 1023 30.21 852 25.16 21.7 71.1 33 4.9 40.9
03:00 1023 30.21 852 25.16 21.4 70.6 34 5 41.1
03:05 1023 30.21 852 25.16 21.3 70.3 34 4.9 40.8
03:10 1023 30.21 852 25.16 21.1 69.9 35 5.3 41.5
03:15 1023 30.21 852 25.16 21 69.7 35 4.9 40.9
03:20 1023 30.21 852 25.16 21 69.7 35 4.9 40.9
03:25 1023 30.21 852 25.16 21.1 70.1 34 5 40.9
03:30 1023 30.21 852 25.16 21 69.8 35 5 41
03:35 1023 30.21 852 25.16 20.9 69.6 35 5 41
03:40 1023 30.21 852 25.16 20.8 69.4 36 5.2 41.3
03:45 1023 30.21 852 25.16 20.5 68.9 36 5.2 41.3
03:50 1022 30.18 852 25.16 20.4 68.7 37 5.3 41.5
03:55 1023 30.21 852 25.16 20.3 68.5 37 5.3 41.6
04:00 1022 30.18 852 25.16 20.1 68.2 37 5.3 41.6
04:05 1023 30.21 852 25.16 20 68 38 5.4 41.6
04:10 1023 30.21 852 25.16 19.8 67.7 38 5.4 41.7
04:15 1023 30.21 852 25.16 19.7 67.5 39 5.4 41.6
04:20 1023 30.21 852 25.16 19.2 66.6 43 6.5 43.6
04:25 1023 30.21 852 25.16 18.6 65.4 42 5.7 42.2
04:30 1023 30.21 852 25.16 18.4 65.1 43 5.6 42.1
04:35 1023 30.21 852 25.16 18.3 64.9 44 5.8 42.5
04:40 1023 30.21 852 25.16 18.1 64.6 44 5.8 42.4
04:45 1023 30.21 852 25.16 18 64.4 43 5.4 41.7
04:50 1023 30.21 852 25.16 18 64.4 43 5.3 41.5
04:55 1023 30.21 852 25.16 18.1 64.7 44 5.7 42.2
05:00 1023 30.21 852 25.16 18 64.4 44 5.5 41.9
05:05 1023 30.21 852 25.16 17.8 64 45 5.7 42.3
05:10 1023 30.21 852 25.16 17.8 64 46 6.1 42.9
05:15 1023 30.21 852 25.16 17.9 64.2 43 5.2 41.3
05:20 1023 30.21 852 25.16 18 64.3 43 5.2 41.3
05:25 1023 30.21 852 25.16 17.9 64.1 43 5.2 41.4
05:30 1023 30.21 852 25.16 17.7 63.9 43 5 41
05:35 1023 30.21 852 25.16 17.8 64 42 4.9 40.7
05:40 1023 30.21 852 25.16 18 64.3 41 4.8 40.6
05:45 1023 30.21 852 25.16 18.1 64.6 42 5 41.1
05:50 1023 30.21 852 25.16 18.2 64.7 42 5 41.1
05:55 1023 30.21 852 25.16 18.1 64.6 42 5.1 41.1
06:00 1023 30.21 852 25.16 18.1 64.5 42 5.1 41.1
06:05 1023 30.21 852 25.16 18.1 64.5 42 5 41.1
06:10 1023 30.21 852 25.16 18.2 64.8 41 4.8 40.7
06:15 1023 30.21 852 25.16 18.4 65.1 40 4.8 40.7
06:20 1023 30.21 852 25.16 18.4 65.2 41 5 41
06:25 1023 30.21 852 25.16 18.4 65 41 5.2 41.3
06:30 1023 30.21 852 25.16 18.5 65.3 41 5.2 41.4
06:35 1023 30.21 852 25.16 18.9 66 43 6.2 43.2
06:40 1023 30.21 852 25.16 19.3 66.7 40 5.4 41.7
06:45 1023 30.21 852 25.16 19.4 67 40 5.7 42.2
06:50 1023 30.21 852 25.16 19.5 67 41 6 42.8
06:55 1023 30.21 852 25.16 19.7 67.4 40 5.9 42.6
07:00 1023 30.21 852 25.16 19.8 67.6 42 6.6 43.9
07:05 1023 30.21 852 25.16 20 67.9 41 6.3 43.4
07:10 1023 30.21 852 25.16 20.3 68.6 43 7.3 45.2
07:15 1023 30.21 852 25.16 20.5 68.9 38 5.8 42.4
07:20 1023 30.21 852 25.16 20.6 69.1 39 6.4 43.5
07:25 1023 30.21 852 25.16 21 69.8 41 7.4 45.4
07:30 1023 30.21 852 25.16 21.4 70.5 38 6.6 43.9
07:35 1023 30.21 852 25.16 21.9 71.4 36 6.4 43.5
07:40 1023 30.21 852 25.16 22.1 71.9 37 6.9 44.5
07:45 1023 30.21 852 25.16 22.5 72.5 35 6.6 43.8
07:50 1023 30.21 852 25.16 22.5 72.4 35 6.6 44
07:55 1023 30.21 852 25.16 22.7 72.9 35 6.8 44.3
08:00 1023 30.21 852 25.16 22.8 73.1 34 6.3 43.3
08:05 1023 30.21 852 25.16 23.3 73.9 34 6.6 43.9
08:10 1023 30.21 852 25.16 23.5 74.3 33 6.3 43.4
08:15 1022 30.18 852 25.16 23.6 74.4 32 6 42.8
08:20 1022 30.18 852 25.16 23.9 75 32 6.5 43.7
08:25 1022 30.18 852 25.16 24.5 76.1 33 7.3 45.1
08:30 1022 30.18 852 25.16 24.7 76.4 31 6.5 43.7
08:35 1022 30.18 852 25.16 25.4 77.8 30 7 44.6
08:40 1022 30.18 851 25.13 26.1 79 30 7.6 45.6
08:45 1022 30.18 851 25.13 25.3 77.5 30 6.8 44.2
08:50 1022 30.18 851 25.13 25 77 31 6.9 44.5
08:55 1022 30.18 851 25.13 25.6 78.1 30 6.9 44.4
09:00 1022 30.18 851 25.13 26 78.8 29 6.6 43.9
09:05 1022 30.18 851 25.13 26.2 79.2 29 7.1 44.9
09:10 1022 30.18 851 25.13 26.2 79.2 29 6.9 44.5
09:15 1022 30.18 851 25.13 26.4 79.6 29 7.4 45.3
09:20 1022 30.18 851 25.13 26.5 79.8 28 7 44.6
09:25 1022 30.18 851 25.13 26.8 80.2 28 6.9 44.4
09:30 1022 30.18 851 25.13 26.8 80.2 28 6.8 44.3
09:35 1022 30.18 851 25.13 27 80.6 27 6.8 44.3
09:40 1022 30.18 851 25.13 27.9 82.2 27 7.6 45.7
09:45 1022 30.18 851 25.13 27.8 82 27 7.2 45
09:50 1022 30.18 851 25.13 28.5 83.3 25 6.8 44.2
09:55 1022 30.18 851 25.13 28.4 83.2 26 7.5 45.4
10:00 1022 30.18 851 25.13 27.6 81.6 27 7.3 45.1
10:05 1022 30.18 851 25.13 27.7 81.8 26 7 44.6
10:10 1022 30.18 851 25.13 28.8 83.8 25 7.3 45.1
10:15 1021 30.15 851 25.13 28.7 83.6 25 6.8 44.3
10:20 1021 30.15 851 25.13 29.2 84.6 27 8.4 47.1
10:25 1021 30.15 851 25.13 29.5 85 24 7.2 45
10:30 1021 30.15 851 25.13 29.4 85 23 6.8 44.2
10:35 1021 30.15 850 25.1 29.5 85.2 23 6.6 43.9
10:40 1021 30.15 850 25.1 29.9 85.7 23 6.9 44.4
10:45 1021 30.15 850 25.1 30.3 86.5 22 6.4 43.5
10:50 1021 30.15 850 25.1 30.4 86.7 22 6.6 43.8
10:55 1021 30.15 850 25.1 30.3 86.5 23 7.2 44.9
11:00 1021 30.15 850 25.1 30.4 86.7 23 7.5 45.4
11:05 1021 30.15 850 25.1 30.5 86.8 22 6.4 43.5
11:10 1021 30.15 850 25.1 30.9 87.6 22 6.8 44.2
11:15 1021 30.15 850 25.1 31 87.8 21 6.5 43.7
11:20 1021 30.15 850 25.1 31.2 88.1 22 7.4 45.4
11:25 1021 30.15 850 25.1 31.3 88.4 21 6.7 44
11:30 1021 30.15 850 25.1 32.1 89.7 20 6.5 43.8
11:35 1021 30.15 850 25.1 31.6 89 21 7 44.6
11:40 1021 30.15 850 25.1 31.1 87.9 21 6.5 43.7
11:45 1021 30.15 850 25.1 31.8 89.2 19 5.5 41.9
11:50 1020 30.12 850 25.1 32.6 90.7 18 5.8 42.4
11:55 1020 30.12 850 25.1 32.5 90.5 18 5.9 42.6
12:00 1020 30.12 850 25.1 32 89.6 17 4.6 40.2
12:05 1020 30.12 850 25.1 31.7 89 15 2.2 36
12:10 1020 30.12 849 25.07 32.5 90.6 15 3 37.3
12:15 1020 30.12 849 25.07 33.3 92 14 2.7 36.9
12:20 1020 30.12 849 25.07 33.8 92.8 14 2.8 37
12:25 1020 30.12 849 25.07 34.2 93.5 14 3.4 38.2
12:30 1020 30.12 849 25.07 33.8 92.9 14 2.7 36.9
12:35 1020 30.12 849 25.07 34.2 93.6 13 2.4 36.2
12:40 1020 30.12 849 25.07 33.9 93 13 2.5 36.5
12:45 1020 30.12 849 25.07 33 91.4 15 2.9 37.2
12:50 1020 30.12 849 25.07 31.2 88.2 17 3.9 39
12:55 1020 30.12 849 25.07 30 85.9 19 3.9 39
13:00 1020 30.12 849 25.07 29.9 85.9 19 4 39.1
13:05 1020 30.12 849 25.07 30 86 19 4.4 39.9
13:10 1020 30.12 849 25.07 30 86 18 3.6 38.5
13:15 1020 30.12 849 25.07 30.2 86.3 18 3.4 38.1
13:20 1020 30.12 849 25.07 30.3 86.5 19 4.5 40.1
13:25 1020 30.12 849 25.07 29.8 85.7 21 5.5 41.8
13:30 1020 30.12 849 25.07 28.9 84 21 4.8 40.7
13:35 1020 30.12 849 25.07 28.7 83.6 19 3 37.4
13:40 1020 30.12 849 25.07 29 84.1 20 4.4 39.9
13:45 1020 30.12 849 25.07 28.7 83.6 24 6.3 43.4
13:50 1020 30.12 849 25.07 28.4 83 22 5.1 41.2
13:55 1020 30.12 849 25.07 28.7 83.6 23 6.1 42.9
14:00 1020 30.12 850 25.1 28.5 83.3 24 6.5 43.7
14:05 1020 30.12 850 25.1 27.4 81.2 26 6.2 43.2
14:10 1020 30.12 849 25.07 27 80.6 24 5.2 41.3
14:15 1020 30.12 849 25.07 27.3 81.1 26 6.2 43.1
14:20 1020 30.12 849 25.07 27.9 82.2 23 5.1 41.2
14:25 1020 30.12 849 25.07 28.4 83.1 24 6.1 42.9
14:30 1020 30.12 849 25.07 28.4 83.1 23 5.7 42.2
14:35 1020 30.12 849 25.07 28.5 83.2 24 6.2 43.2
14:40 1020 30.12 849 25.07 28.2 82.7 29 8.7 47.7
14:45 1020 30.12 849 25.07 27.2 81 29 8 46.4
14:50 1020 30.12 849 25.07 26.9 80.4 30 8.2 46.8
14:55 1020 30.12 849 25.07 26.3 79.4 31 8 46.4
15:00 1020 30.12 850 25.1 26.6 79.9 31 8.3 46.9
15:05 1020 30.12 850 25.1 26.6 79.8 35 9.9 49.8
15:10 1020 30.12 850 25.1 25.9 78.5 36 9.8 49.7
15:15 1021 30.15 850 25.1 26 78.7 34 9.1 48.3
15:20 1021 30.15 850 25.1 26.8 80.2 32 9.2 48.6
15:25 1020 30.12 850 25.1 27 80.5 31 8.8 47.8
15:30 1020 30.12 849 25.07 27 80.6 31 8.5 47.3
15:35 1020 30.12 849 25.07 28 82.3 29 8.4 47.1
15:40 1020 30.12 849 25.07 28.3 82.9 27 7.6 45.7
15:45 1020 30.12 849 25.07 28.2 82.7 28 8.3 46.9
15:50 1020 30.12 849 25.07 27.4 81.3 32 9.4 49
15:55 1020 30.12 849 25.07 26.9 80.4 30 8.2 46.7
16:00 1020 30.12 849 25.07 26.8 80.3 32 9.1 48.4
16:05 1020 30.12 849 25.07 26.8 80.2 35 10.3 50.5
16:10 1020 30.12 849 25.07 25.9 78.7 39 11.2 52.2
16:15 1020 30.12 849 25.07 25.3 77.5 40 10.9 51.6
16:20 1020 30.12 849 25.07 25.6 78 38 10.4 50.7
16:25 1020 30.12 849 25.07 25.8 78.5 36 9.9 49.8
16:30 1020 30.12 849 25.07 26.3 79.3 36 10.1 50.2
16:35 1020 30.12 849 25.07 27.7 81.9 30 8.9 48.1
16:40 1020 30.12 849 25.07 28.9 84 27 8.3 47
16:45 1020 30.12 849 25.07 28.9 83.9 28 8.7 47.6
16:50 1020 30.12 849 25.07 28.5 83.4 35 12 53.6
16:55 1020 30.12 849 25.07 26.7 80.1 38 11.6 53
17:00 1020 30.12 849 25.07 26.1 78.9 38 11 51.8
17:05 1020 30.12 849 25.07 26.6 80 35 10.1 50.1
17:10 1020 30.12 849 25.07 27.1 80.8 36 11.1 51.9
17:15 1020 30.12 849 25.07 26.5 79.8 38 11.2 52.2
17:20 1020 30.12 849 25.07 26 78.9 38 10.9 51.6
17:25 1020 30.12 849 25.07 25.7 78.3 40 11.2 52.2
17:30 1020 30.12 849 25.07 25.6 78 34 8.9 48.1
17:35 1020 30.12 849 25.07 25.8 78.4 36 9.8 49.7
17:40 1020 30.12 849 25.07 26 78.8 37 10.3 50.6
17:45 1020 30.12 849 25.07 25.7 78.2 36 9.7 49.4
17:50 1020 30.12 849 25.07 25.6 78.1 33 8.6 47.4
17:55 1020 30.12 849 25.07 25.7 78.2 35 9.2 48.5
18:00 1020 30.12 849 25.07 25.5 77.9 34 8.9 48
18:05 1020 30.12 849 25.07 25.3 77.6 36 9.6 49.3
18:10 1020 30.12 849 25.07 25.1 77.2 35 8.9 48.1
18:15 1020 30.12 849 25.07 25.1 77.2 36 9.1 48.4
18:20 1020 30.12 849 25.07 24.9 76.8 36 8.9 48.1
18:25 1020 30.12 849 25.07 24.7 76.5 38 9.9 49.8
18:30 1020 30.12 849 25.07 24.4 75.9 41 10.4 50.8
18:35 1020 30.12 849 25.07 24.4 75.8 41 10.4 50.8
18:40 1020 30.12 849 25.07 24.3 75.8 40 10.2 50.3
18:45 1020 30.12 849 25.07 24.4 75.9 41 10.4 50.6
18:50 1020 30.12 849 25.07 24.2 75.5 43 10.9 51.7
18:55 1020 30.12 849 25.07 24 75.3 38 9.2 48.5
19:00 1020 30.12 849 25.07 24.1 75.3 35 8 46.5
19:05 1020 30.12 849 25.07 24 75.1 36 8.1 46.6
19:10 1020 30.12 849 25.07 23.8 74.9 35 7.7 45.9
19:15 1020 30.12 849 25.07 23.7 74.7 36 8.1 46.5
19:20 1020 30.12 849 25.07 23.5 74.2 40 9.2 48.5
19:25 1020 30.12 849 25.07 23 73.4 44 10.1 50.2
19:30 1020 30.12 849 25.07 22.5 72.4 47 10.7 51.3
19:35 1020 30.12 849 25.07 22.2 72 44 9.6 49.4
19:40 1020 30.12 849 25.07 22.1 71.9 43 9.2 48.5
19:45 1020 30.12 850 25.1 22.2 72 46 10.4 50.6
19:50 1021 30.15 850 25.1 21.8 71.2 47 10 50.1
19:55 1020 30.12 850 25.1 21.8 71.2 49 10.7 51.3
20:00 1020 30.12 849 25.07 22 71.5 47 10.2 50.4
20:05 1020 30.12 849 25.07 21.7 71 45 9.4 48.9
20:10 1020 30.12 849 25.07 21.6 70.9 50 11 51.8
20:15 1020 30.12 849 25.07 21 69.9 53 11.1 52
20:20 1020 30.12 849 25.07 20.7 69.3 54 11.1 52
20:25 1020 30.12 850 25.1 20.4 68.8 54 10.8 51.5
20:30 1020 30.12 850 25.1 20.4 68.7 54 11 51.8
20:35 1021 30.15 850 25.1 20.4 68.6 54 10.8 51.4
20:40 1021 30.15 850 25.1 20.4 68.7 55 11.3 52.3
20:45 1021 30.15 850 25.1 20.2 68.3 53 10.5 50.9
20:50 1021 30.15 850 25.1 20.5 68.9 48 9.4 48.9
20:55 1021 30.15 850 25.1 21.2 70.2 52 11.1 52
21:00 1021 30.15 850 25.1 20.5 68.8 53 10.8 51.5
21:05 1021 30.15 850 25.1 20.3 68.5 56 11.2 52.1
21:10 1021 30.15 850 25.1 19.8 67.7 59 11.6 52.9
21:15 1021 30.15 850 25.1 19.5 67.1 59 11.5 52.7
21:20 1021 30.15 850 25.1 19.3 66.8 59 11.3 52.3
21:25 1021 30.15 850 25.1 19.4 66.9 58 11.1 52
21:30 1021 30.15 850 25.1 19.3 66.8 58 11.1 51.9
21:35 1021 30.15 850 25.1 19.2 66.6 58 10.9 51.6
21:40 1021 30.15 850 25.1 19.3 66.8 56 10.6 51
21:45 1021 30.15 850 25.1 19.4 67 56 10.5 50.8
21:50 1021 30.15 850 25.1 19.6 67.3 57 10.9 51.7
21:55 1021 30.15 850 25.1 19.7 67.5 56 10.7 51.2
22:00 1021 30.15 850 25.1 19.5 67.1 56 10.7 51.2
22:05 1021 30.15 850 25.1 19.4 66.8 57 10.8 51.4
22:10 1021 30.15 850 25.1 19.2 66.5 59 11 51.7
22:15 1021 30.15 850 25.1 18.8 65.8 60 11.1 52
22:20 1021 30.15 850 25.1 18.6 65.4 62 11.1 52.1
22:25 1021 30.15 850 25.1 18.5 65.2 62 11.1 52
22:30 1021 30.15 850 25.1 18.5 65.3 65 11.8 53.2
22:35 1021 30.15 850 25.1 18.5 65.3 60 10.7 51.2
22:40 1021 30.15 850 25.1 19.1 66.3 58 10.6 51.1
22:45 1021 30.15 850 25.1 19.2 66.5 59 11 51.8
22:50 1021 30.15 850 25.1 19.1 66.4 53 9.5 49.1
22:55 1020 30.12 850 25.1 19.5 67.2 52 9.6 49.3
23:00 1020 30.12 850 25.1 19.5 67.2 52 9.6 49.2
23:05 1020 30.12 850 25.1 19.5 67.2 54 10.2 50.4
23:10 1021 30.15 850 25.1 19.5 67.1 52 9.4 48.9
23:15 1021 30.15 850 25.1 19.7 67.5 56 10.7 51.3
23:20 1022 30.18 851 25.13 19.5 67.1 50 8.9 48.1
23:25 1022 30.18 851 25.13 20.4 68.6 48 9.3 48.7
23:30 1022 30.18 851 25.13 20.4 68.6 47 8.8 47.9
23:35 1022 30.18 851 25.13 20.6 69.1 44 8.2 46.8
23:40 1022 30.18 851 25.13 20.8 69.5 45 8.6 47.5
23:45 1022 30.18 852 25.16 20.7 69.2 45 8.4 47.2
23:50 1022 30.18 852 25.16 20.5 68.9 45 8.3 47
23:55 1023 30.21 852 25.16 20.4 68.7 46 8.6 47.5
24:00 1023 30.21 852 25.16 20.1 68.3 47 8.7 47.6